?anl?urfa Airport


Codes: LTCH/SFQ
Name: ?anl?urfa Airport
City: ?anl?urfa
Country: Turkey
Elevation: 1483 ft.
Wikipedia:

Photos at ?anl?urfa Airport


   Photos courtesy of SpottingLog. You can add your own sightings and photos by signing up for a free trial today.



No photos found.

Weather at ?anl?urfa Airport


Time (UTC)DescriptionTempratureWindCloud coverageVisibilityPressureHumidity
18-Apr-2024 00:00Scattered Clouds20°C2 mph, NE26%10000m1011hPa51%
18-Apr-2024 03:00Clear Sky19°C2 mph, NE10%10000m1011hPa52%
18-Apr-2024 06:00Clear Sky22°C9 mph, E0%10000m1010hPa44%
18-Apr-2024 09:00Clear Sky27°C16 mph, SE10%10000m1009hPa31%
18-Apr-2024 12:00Clear Sky29°C11 mph, S6%10000m1007hPa26%
18-Apr-2024 15:00Clear Sky25°C16 mph, W0%10000m1007hPa42%
18-Apr-2024 18:00Clear Sky19°C16 mph, W0%10000m1009hPa56%
18-Apr-2024 21:00Clear Sky17°C4 mph, W0%10000m1009hPa68%
19-Apr-2024 00:00Clear Sky16°C2 mph, NW0%10000m1009hPa71%
19-Apr-2024 03:00Clear Sky15°C4 mph, W0%10000m1010hPa76%
19-Apr-2024 06:00Clear Sky20°C9 mph, W0%10000m1010hPa58%
19-Apr-2024 09:00Clear Sky24°C11 mph, W0%10000m1009hPa38%
19-Apr-2024 12:00Clear Sky26°C11 mph, W0%10000m1008hPa30%
19-Apr-2024 15:00Scattered Clouds23°C9 mph, SW39%10000m1008hPa46%
19-Apr-2024 18:00Scattered Clouds18°C11 mph, W31%10000m1010hPa70%
19-Apr-2024 21:00Scattered Clouds16°C4 mph, W36%10000m1010hPa74%
20-Apr-2024 00:00Scattered Clouds15°C2 mph, NW27%10000m1009hPa76%
20-Apr-2024 03:00Overcast Clouds15°C2 mph, NE85%10000m1010hPa78%
20-Apr-2024 06:00Overcast Clouds19°C2 mph, S91%10000m1011hPa61%
20-Apr-2024 09:00Clear Sky24°C7 mph, SW2%10000m1010hPa33%
20-Apr-2024 12:00Few Clouds26°C9 mph, SW19%10000m1008hPa25%
20-Apr-2024 15:00Overcast Clouds23°C7 mph, SW100%10000m1008hPa38%
20-Apr-2024 18:00Overcast Clouds20°C4 mph, NW100%10000m1009hPa42%
20-Apr-2024 21:00Overcast Clouds18°C2 mph, W98%10000m1009hPa46%
21-Apr-2024 00:00Overcast Clouds17°C4 mph, NW97%10000m1010hPa48%
21-Apr-2024 03:00Clear Sky16°C2 mph, NE3%10000m1010hPa52%
21-Apr-2024 06:00Clear Sky22°C2 mph, W4%10000m1011hPa36%
21-Apr-2024 09:00Clear Sky25°C4 mph, S7%10000m1011hPa30%
21-Apr-2024 12:00Clear Sky27°C4 mph, W6%10000m1010hPa28%
21-Apr-2024 15:00Clear Sky24°C11 mph, W4%10000m1010hPa40%
21-Apr-2024 18:00Clear Sky19°C16 mph, W4%10000m1012hPa50%
21-Apr-2024 21:00Clear Sky18°C4 mph, W0%10000m1012hPa57%
22-Apr-2024 00:00Clear Sky16°C4 mph, NW1%10000m1014hPa63%
22-Apr-2024 03:00Clear Sky15°C4 mph, NW0%10000m1013hPa68%
22-Apr-2024 06:00Clear Sky20°C4 mph, W0%10000m1014hPa51%
22-Apr-2024 09:00Clear Sky25°C4 mph, W4%10000m1013hPa30%
22-Apr-2024 12:00Clear Sky27°C7 mph, W5%10000m1012hPa24%
22-Apr-2024 15:00Few Clouds25°C7 mph, W16%10000m1012hPa34%
22-Apr-2024 18:00Scattered Clouds20°C9 mph, W28%10000m1014hPa49%
22-Apr-2024 21:00Clear Sky18°C9 mph, NW5%10000m1014hPa58%